Anniston, MO

3:48 AM CDT on April 18, 2015 (GMT -0500)
SEMO Electric Coop | | Change Station
CLOSE
Current Station
Personal Weather Station
Location: Sikeston, MO
Elevation: 338 ft
Nearby Weather Stations
Active Advisory: Flood Warning

Elev 338 ft 36.85 °N, 89.58 °W | Updated 8 minutes ago

Overcast
Overcast
59.7 °F
Feels Like 59.7 °F
N
0.0
Wind Variable Wind from ENE
Gusts 3.0 mph

Today
High -- | Low -- °F
--% Chance of Precip.
Yesterday
High -- | Low -- °F
Precip. -- in
6:19 AM 7:34 PM
Waning Crescent, 0% visible
Pressure 30.00 in
Visibility 2.0 miles
Clouds Clear
Dew Point 59 °F
Humidity 96%
Rainfall 0.00 in
Snow Depth Not available.
UV 0 out of 12
Pollen 10.40 out of 12
Air Quality Not available.
Flu Activity Local Activity
METAR KCIR 180835Z AUTO 00000KT 2SM BR CLR 15/15 A3000 RMK AO2 T01500150

More Conditions Fewer Conditions

Pressure 30.00 in
Visibility 2.0 miles
Clouds Clear
Dew Point 59 °F
Humidity 96%
Rainfall 0.00 in
Snow Depth Not available.
UV 0 out of 12
Pollen 10.40 out of 12
Air Quality Not available.
Flu Activity Local Activity
METAR KCIR 180835Z AUTO 00000KT 2SM BR CLR 15/15 A3000 RMK AO2 T01500150

More Conditions Fewer Conditions

10-Day Weather Forecast

Almanac

Astronomy

Apr. 18, 2015 Rise Set
Actual Time
Civil Twilight
Nautical Twilight
Astronomical Twilight
Moon
Length of Visible Light
Length of Day
Tomorrow will be .
, % of the Moon is Illuminated

Today's Extremes

State Highs State Lows

Community

WunderPhotos

Upload Photos

1,814,345 photos uploaded!

WunderBlogs® & News

Nearby

Air Quality

  Air Quality AQ Index Pollutant
Not available.

Snow Depth

Station Depth Elevation

Earthquake Activity

City Distance Mag. Time & Date
Minimum magnitude displayed is 2.5.

Coastal Water Temperatures

Place Temperature

Stations

Nearby Weather Stations

Station Location Temp. Windchill Dew Point Humidity Wind Precip. Elev Updated Type
                   
Flood Warning
Statement as of 9:12 PM CDT on April 17, 2015

The Flood Warning continues for
the Ohio River at Cairo
* until further notice.
* At 8:00 PM Friday the stage was 43.1 feet.
* Flood stage is 40.0 feet.
* Minor flooding is occurring and minor flooding is forecast.
* Forecast... the river will continue rising to near 44.0 feet by
Monday evening.


Lat... Lon 3709 8946 3651 8918 3680 8900 3709 8907
      3717 8916